2009 2nd Annual Yellow Jacket Challenge

back to results

Apr. 19, 2009

2009 2nd Annual Yellow Jacket Challenge
Greenville, Michigan
Provided by Playmakers


Overall Male Open Winner

Place Name City Age Overall Time Pace
1 David Jordan Concord MI 37 1 17:22.2 5:36/M

Overall Male Master Winner

Place Name City Age Overall Time Pace
1 Marshall Randall Rockford MI 51 2 17:47.7 5:44/M

Male 14 and under

Place Name City Age Overall Time Pace
1 Matthew Albano Rockford MI 13 8 19:54.1 6:25/M
2 Kyle Reamer Rockford MI 14 18 21:16.1 6:52/M
3 Jacob Sweet Belding MI 12 27 22:21.1 7:13/M
4 Hunter Sorsen Greenville MI 9 33 23:04.6 7:26/M
5 Nicholas Reamer Rockford MI 12 34 23:09.9 7:28/M
6 Alex Karatkiewicz Greenville MI 13 35 23:19.8 7:31/M
7 Brandon Loisette Greenville MI 12 58 25:00.1 8:04/M
8 Evan Karatkiewicz Greenville MI 10 60 25:15.6 8:09/M
9 Tren Bartrum Greenville MI 10 64 25:25.9 8:12/M
10 Joey Burger Greenville MI 11 65 25:29.0 8:13/M
11 Dan Golden Greenville MI 11 66 25:29.3 8:13/M
12 Andrew Mason Gowen MI 10 76 26:05.2 8:25/M
13 Jacob Reamer Rockford MI 11 80 26:18.8 8:29/M
14 Keegan Parker Greenville MI 10 88 26:50.1 8:39/M
15 Donovan Wheaton Greenville MI 12 89 26:56.6 8:41/M
16 Dren Bartrum Greenville MI 10 90 27:00.3 8:43/M
17 Kyle Swindell Greenville MI 12 97 27:15.0 8:47/M
18 Devon Brune Grand Rapids MI 12 101 27:33.3 8:53/M
19 Dustin Pendell Trufant MI 9 103 27:38.4 8:55/M
20 Tyler Loisette Greenville MI 9 104 27:41.5 8:56/M
21 Jacob Ashley Sheridan MI 10 132 29:16.1 9:26/M
22 Tyler Goins Greenville MI 9 134 29:17.4 9:27/M
23 Michael Hogan Greenville MI 10 154 30:38.4 9:53/M
24 Gabe McNinch Rockford MI 9 168 30:58.2 9:59/M
25 Tyler Draper Greenville MI 10 189 32:41.2 10:33/M
26 Caleb Jones Greenville MI 9 207 35:05.4 11:19/M

Male 15 to 18

Place Name City Age Overall Time Pace
1 Austin Earles Six Lakes MI 15 22 21:41.6 7:00/M
2 Garett Schoenfelder Greenville MI 17 40 23:41.3 7:38/M
3 Kody Wall Greenville MI 17 46 24:03.3 7:45/M
4 Justin Herp Cedar Springs MI 16 54 24:43.0 7:58/M
5 Jared Trevino Carson City MI 16 72 25:52.4 8:21/M

Male 19 to 24

Place Name City Age Overall Time Pace
1 Tom Duran Trenton mi 19 47 24:05.2 7:46/M
2 Andrew Massar Grand Rapids MI 22 74 25:57.1 8:22/M
3 Grant Weber Wayland mi 24 138 29:45.1 9:36/M

Male 25 to 29

Place Name City Age Overall Time Pace
1 T J Curry Greenville MI 26 3 18:42.5 6:02/M
2 Charles Bliss Dewitt MI 27 20 21:31.8 6:56/M
3 Tim Carthcart Kentwood MI 27 26 22:18.1 7:12/M
4 Scott Burnham Marshall MI 29 43 24:00.3 7:45/M
5 James Nagel Gowen MI 26 81 26:21.6 8:30/M
6 Chris Orlowski Gowen MI 27 158 30:44.6 9:55/M
7 Erik Kiste Greenbush MI 29 220 38:28.6 12:25/M

Male 30 to 34

Place Name City Age Overall Time Pace
1 Brian Steinberg Grand Rapids MI 30 4 19:03.4 6:09/M
2 Eric John Branch Greenville MI 30 11 20:22.1 6:34/M
3 Justin Stemple Greenville MI 30 13 20:42.2 6:41/M
4 John Sherwood Greenville MI 34 25 22:03.4 7:07/M
5 Mike Hudson Los Angeles CA 31 28 22:21.7 7:13/M
6 Tim Van Horssen Holland MI 31 52 24:24.2 7:52/M
7 Joseph Davis Lakeview MI 32 57 24:57.9 8:03/M
8 Steve Davis Greenville MI 31 69 25:34.3 8:15/M
9 Eric Alber Greenville MI 34 77 26:05.8 8:25/M
10 Ryan Wittenbach Lowell MI 30 124 28:43.6 9:16/M
11 Tom Davis Lakeview MI 32 160 30:49.7 9:56/M

Male 35 to 39

Place Name City Age Overall Time Pace
1 Gary Zank Belding MI 36 9 19:55.8 6:25/M
2 Jeff Timmer Kentwood MI 35 42 23:59.9 7:44/M
3 Brian Scott Greenville MI 36 49 24:17.7 7:50/M
4 Keane Blaszczynski Rockford MI 37 70 25:36.9 8:15/M
5 Perry Burger Greenville MI 39 75 25:59.6 8:23/M
6 Douglas Ploughman II Greenville MI 38 84 26:36.3 8:35/M
7 Mike Dehaan Kentwood MI 37 87 26:46.0 8:38/M
8 Terry Dowdell Greenville MI 35 121 28:28.1 9:11/M
9 Scott Allen Fenwick MI 36 125 28:43.6 9:16/M
10 Nathan Miller Greenville MI 35 130 29:01.0 9:22/M
11 Lawrence Vos Greenville MI 35 142 29:46.9 9:36/M
12 Jamie McNinch Rockford MI 36 180 31:37.9 10:12/M
13 Matt Ahearn Ashley MI 36 213 35:59.2 11:36/M
14 Dan Schuitman Wyoming MI 38 223 39:24.1 12:43/M

Male 40 to 44

Place Name City Age Overall Time Pace
1 Michael Eastman Grand Rapids MI 43 12 20:23.8 6:35/M
2 David Horne Kentwood MI 42 15 20:56.0 6:45/M
3 Edwin Winter Lakeview MI 44 21 21:34.8 6:57/M
4 Karl Visser Greenville MI 43 56 24:54.0 8:02/M
5 Rob Bowers Stanton MI 42 85 26:37.6 8:35/M
6 Pablo Mahave-Vegliz Grand Rapids MI 40 102 27:33.7 8:53/M
7 Terry Vos Comstock Park MI 43 141 29:46.6 9:36/M
8 Bruce Allen Fenwick MI 40 202 34:28.4 11:07/M
9 Michael Mast Grand Rapids MI 40 227 42:09.1 13:36/M

Male 45 to 49

Place Name City Age Overall Time Pace
1 Dan Gibson Alma MI 48 5 19:18.9 6:14/M
2 Robert Insley Belding Mi 48 6 19:23.9 6:15/M
3 Lawrence Albano Rockford MI 47 16 20:57.5 6:45/M
4 Dennis Dassinger Greenville MI 45 19 21:25.7 6:55/M
5 Matthew Deswys Greenville MI 49 29 22:26.1 7:14/M
6 Glenn Tissue Greenville MI 49 32 22:59.5 7:25/M
7 Joe Haen Greenville MI 49 38 23:31.3 7:35/M
8 Torrey Ohman Cedar Springs MI 47 41 23:44.5 7:39/M
9 Lamont Whitaker Jenison MI 46 48 24:11.6 7:48/M
10 Clint Reamer Rockford MI 45 53 24:39.6 7:57/M
11 Thomas Truston Belmont MI 45 71 25:42.3 8:17/M
12 Steve Peabody Belding MI 46 79 26:16.1 8:28/M
13 Bernie Zahm Rockford MI 49 107 27:46.5 8:57/M
14 David Harris Greenville MI 46 113 28:07.6 9:04/M
15 Mark Vanhoose Greenville MI 46 129 28:59.0 9:21/M

Male 50 to 54

Place Name City Age Overall Time Pace
1 Brian Finn Grand Rapids MI 50 7 19:46.7 6:23/M
2 Gary Huch Greenville MI 54 10 20:19.8 6:33/M
3 Eric Hinderleider Muskegon Mi 51 31 22:43.6 7:20/M
4 Steve Klaylle Greenville MI 54 44 24:02.2 7:45/M
5 Greg Karczewski Rockford MI 50 51 24:21.2 7:51/M
6 Jody Brown Greenville MI 50 63 25:21.7 8:11/M
7 Weber Gregg Wayland mi 51 114 28:09.5 9:05/M
8 Nick Springsteen Greenville MI 53 147 30:06.1 9:43/M
9 Eddie Trevino Carson City MI 54 211 35:40.3 11:30/M
10 Mark Cole Greenville MI 50 215 37:19.4 12:02/M

Male 55 to 59

Place Name City Age Overall Time Pace
1 David Bebiak Stanton MI 55 55 24:44.4 7:59/M
2 Steve Spielbauer Lakeview MI 56 94 27:07.7 8:45/M
3 Rick Hinjohinson Ionia MI 59 112 28:02.3 9:03/M
4 Jim Pilon Durand MI 58 163 30:56.2 9:59/M
5 Larry Donahue Sumner MI 56 173 31:04.9 10:01/M
6 Rocky Hansen Rockford MI 56 197 33:36.0 10:50/M
7 John Hurmence Caledonia MI 55 209 35:30.3 11:27/M

Male 60 to 69

Place Name City Age Overall Time Pace
1 Matt Britton Rothbury MI 64 36 23:29.2 7:35/M
2 Mike Thaler Muskegon mi 60 68 25:33.1 8:15/M
3 Tim Rose Rockford MI 63 86 26:40.2 8:36/M
4 Neil SchMacHtenberge Gowen MI 68 106 27:43.4 8:56/M
5 Gordon Carpenter Comstock Park MI 67 133 29:16.6 9:26/M
6 Ronald Frick Hastings MI 63 201 34:26.7 11:06/M



Overall Female Open Winner

Place Name City Age Overall Time Pace
1 Season Gilbert Rockford MI 30 14 20:48.1 6:43/M

Overall Female Master Winner

Place Name City Age Overall Time Pace
1 Caroline Cook Greenville MI 49 23 21:52.7 7:03/M

Female 14 and under

Place Name City Age Overall Time Pace
1 Gabrielle Bruining Wyoming MI 11 45 24:03.0 7:45/M
2 Sydney Allen Fenwick MI 14 67 25:30.3 8:14/M
3 Paige Hallock Greenville MI 10 98 27:27.1 8:51/M
4 Clarice Callahan Belding MI 12 99 27:29.0 8:52/M
5 Madison Sorsen Greenville mi 13 105 27:43.1 8:56/M
6 Rachel Dehaan Kentwood MI 13 108 27:49.9 8:58/M
7 Megan Harris Greenville MI 14 111 27:59.6 9:02/M
8 Kylee Krogman Greenville MI 10 126 28:44.3 9:16/M
9 Kaylene McIntyre Cedar Springs MI 10 128 28:56.8 9:20/M
10 Samantha Villwock Greenville MI 13 153 30:38.1 9:53/M
11 Taylor Holloway Greenville MI 10 175 31:23.2 10:07/M
12 Michelle Kelsey Tustin MI 13 188 32:32.2 10:30/M
13 Kali Trevino Carson City MI 13 210 35:39.5 11:30/M

Female 15 to 18

Place Name City Age Overall Time Pace
1 Serena Reamer Rockford MI 15 17 21:15.8 6:51/M
2 Morgan McCord Trufant MI 15 50 24:17.9 7:50/M
3 Kierslynn Dewys Greenville MI 17 83 26:34.2 8:34/M
4 Kaitlyn Reamer Rockford MI 15 156 30:43.2 9:55/M
5 Tiffany Weidenfeller Greenville MI 18 205 34:48.1 11:14/M

Female 19 to 24

Place Name City Age Overall Time Pace
1 Tiffany Ohman Cedar Springs MI 23 61 25:16.8 8:09/M
2 Emily Spielbauer Lakeview MI 20 109 27:53.1 9:00/M
3 Kourtney Ringelberg Greenville MI 24 120 28:27.8 9:11/M
4 Ashley Kuilema Kalamazoo mi 23 139 29:45.5 9:36/M
5 Jennifer Wiest Greenville MI 24 145 29:58.3 9:40/M
6 Keisha Hansen Rockford MI 23 196 33:35.8 10:50/M
7 Karry Kiste Greenbush MI 24 219 38:22.7 12:23/M
8 Meagan Holmes Tustin MI 23 222 39:16.6 12:40/M

Female 25 to 29

Place Name City Age Overall Time Pace
1 Niki Battjes Six Lakes MI 28 30 22:32.2 7:16/M
2 Amber Nummer Greenville mi 27 91 27:01.7 8:43/M
3 Amber Goetz Gowen MI 28 100 27:29.5 8:52/M
4 Stephanie Beck Greenville MI 28 123 28:42.9 9:15/M
5 Jolon Hull Sparta MI 28 144 29:57.9 9:40/M
6 Jenny Burnham Marshall MI 29 148 30:08.8 9:43/M
7 Sarah Hoffman Greenville MI 29 149 30:09.2 9:44/M
8 Amanda Nagel Gowen MI 27 161 30:54.3 9:58/M
9 Stephanie McKinnon Wyoming MI 28 165 30:57.1 9:59/M
10 Sandra Gilman Greenville MI 27 166 30:57.7 9:59/M
11 Tami Roeters Grant MI 25 170 30:59.1 10:00/M
12 Jami Russell Fruitport MI 25 195 33:31.8 10:49/M
13 Dina Aper Gowen MI 28 206 34:52.5 11:15/M

Female 30 to 34

Place Name City Age Overall Time Pace
1 Marie Henry Belding MI 31 24 22:01.2 7:06/M
2 Jennifer Senn Greenville MI 32 62 25:18.2 8:10/M
3 Erin Hamel-Davis Greenville MI 32 96 27:14.1 8:47/M
4 Carolyn Timmer Kentwood MI 33 131 29:07.7 9:24/M
5 Ruth Pridgeon Holt MI 34 151 30:16.3 9:46/M
6 Janie Stevens Sand Lake MI 31 157 30:44.3 9:55/M
7 Jen Vanderground Grand Rapids MI 32 164 30:56.9 9:59/M
8 Levon Nauta Cedar Springs MI 33 167 30:57.9 9:59/M
9 Lisa Northrop Lake Isabella MI 33 169 30:58.8 9:59/M
10 Jodi Hall Grand Rapids MI 31 174 31:13.4 10:04/M
11 Trisha Jones Rockford mi 30 181 31:38.8 10:12/M
12 Terra Allen Fenwick MI 34 194 33:26.8 10:47/M
13 Kristen Babbitt Cedar Springs MI 33 198 33:46.9 10:54/M
14 Michelle Barber Freeport MI 33 199 33:57.5 10:57/M
15 Erika Peterman Greenville MI 31 203 34:29.4 11:07/M
16 Sarah Swansen Cedar Springs MI 33 214 36:46.9 11:52/M

Female 35 to 39

Place Name City Age Overall Time Pace
1 Sue Ray Rockford MI 38 59 25:14.7 8:08/M
2 Tammy Braman Gowen Mi 38 73 25:56.1 8:22/M
3 Mary Andrews Sparta MI 36 78 26:15.5 8:28/M
4 Monica Merren Greenville MI 37 82 26:28.6 8:32/M
5 Lisamarie Davis Grand Haven MI 36 93 27:05.0 8:44/M
6 Pamela Mooty Walker MI 38 118 28:23.5 9:09/M
7 Jennifer Nye Rockford MI 38 119 28:23.7 9:09/M
8 Jen Branch Greenville MI 36 127 28:56.5 9:20/M
9 Cheryl Unger Vestaburg MI 38 140 29:46.2 9:36/M
10 Tiffanie Tennant Portage MI 36 143 29:55.9 9:39/M
11 Gretchen Goodenow Lowell Mi 38 146 29:59.9 9:40/M
12 Michelle Blaszczynski Rockford MI 38 152 30:22.5 9:48/M
13 Karen Karatkiewicz Greenville MI 36 155 30:42.3 9:54/M
14 Michele Bitner Gowen MI 36 159 30:47.9 9:56/M
15 Mary Ann Dutmers Greenville MI 37 162 30:55.6 9:58/M
16 Patty Page Cedar Springs mi 36 182 31:39.8 10:13/M
17 Monica Witter Greenville MI 37 184 32:04.2 10:21/M
18 Amy Lardie Lowell Mi 35 185 32:04.3 10:21/M
19 Stacie Rose Greenville MI 36 191 33:19.3 10:45/M
20 Bobby Huddleston South Lyon MI 38 200 34:26.3 11:06/M
21 Amy Platt Greenville MI 37 216 37:46.0 12:11/M
22 Holly Byington Greenville MI 39 217 37:46.8 12:11/M
23 Wendy Baty Trufant MI 36 224 41:52.7 13:30/M
24 Kristen Hinkle Cedar Springs MI 39 225 42:03.2 13:34/M
25 Stephanie Clark Stanton Mi 37 229 46:22.0 14:57/M

Female 40 to 44

Place Name City Age Overall Time Pace
1 Lynne Bosanic Greenville MI 42 92 27:03.8 8:44/M
2 Sandi Herbert Greenville MI 42 116 28:15.8 9:07/M
3 Penny Dora Greenville MI 43 136 29:43.5 9:35/M
4 Anne Stratton Howard City MI 41 150 30:14.5 9:45/M
5 Amy Nielsen Coral mi 41 172 31:03.4 10:01/M
6 Teresa Black Caledonia MI 40 176 31:23.5 10:07/M
7 Sally Culey Greenville MI 44 177 31:29.6 10:09/M
8 Julie Rasmussen Gown Mi 43 179 31:37.6 10:12/M
9 Lori L. Anderson Cadillac MI 43 190 32:47.7 10:35/M
10 Teri Agema Greenville MI 43 193 33:24.7 10:46/M
11 Jerry Schullo Hastings Mi 40 212 35:41.1 11:31/M
12 Sharon Kelsey Tustin MI 40 218 37:50.5 12:12/M
13 Marlene Heron Greenville MI 41 228 46:21.7 14:57/M

Female 45 to 49

Place Name City Age Overall Time Pace
1 Christine Winter Lakeview MI 48 37 23:30.8 7:35/M
2 Rhonda Solberg Grand Rapids MI 46 95 27:08.4 8:45/M
3 Teresa Callahan Belding MI 48 110 27:53.5 9:00/M
4 Susan Ayres Greenville MI 45 115 28:15.1 9:07/M
5 Candy Kerschen Greenville MI 45 122 28:29.4 9:11/M
6 Renee Crosby Greenville MI 47 135 29:20.9 9:28/M
7 Karen Albano Rockford MI 47 137 29:44.6 9:35/M
8 Barb Prahl Greenville MI 45 183 31:51.6 10:16/M
9 Nina Ohman Cedar Springs MI 48 186 32:07.4 10:22/M
10 Michell Edison Gowen MI 46 192 33:21.8 10:45/M
11 Lori Wittkowski Greenville MI 45 204 34:47.6 11:13/M
12 Tammy Clingenpeel Stanton MI 45 221 38:49.3 12:31/M
13 Ruthanne Edwards Greenville MI 48 226 42:06.9 13:35/M

Female 50 to 54

Place Name City Age Overall Time Pace
1 Char Bebiak Stanton MI 51 39 23:36.8 7:37/M
2 Michelle Teliczan Cedar Springs MI 52 171 31:02.9 10:01/M
3 Kelli Tammone Greenville MI 50 187 32:15.1 10:24/M

Female 55 to 59

Place Name City Age Overall Time Pace
1 Diane McKinnon Mi. Mi 56 178 31:36.7 10:12/M
2 Karen Maloley Grand Haven MI 59 208 35:26.9 11:26/M

Female 60 to 69

Place Name City Age Overall Time Pace
1 Diane Arbanas Grand Rapids MI 66 117 28:16.5 9:07/M